Time;durP1;ratioP1;P1;durP2;ratioP2;P2;SDS_P1;SDS_P2;PMS_P1;PMS_P2;Temp;Humidity;BMP_temperature;BMP_pressure;BME280_temperature;BME280_humidity;BME280_pressure;Samples;Min_cycle;Max_cycle;Signal;HPM_P1;HPM_P2
2023/10/31 00:00:30;;;;;;;;;;;;;;;21.21;30.18;98173.22;5056576;28;766;-78
2023/10/31 00:02:55;;;;;;;;;;;;;;;21.34;30.30;98171.31;5056533;28;755;-78
2023/10/31 00:05:21;;;;;;;;;;;;;;;21.34;29.97;98165.66;5022007;28;1108;-78
2023/10/31 00:07:46;;;;;;;;;;;;;;;20.91;30.92;98165.78;5038672;28;1118;-78
2023/10/31 00:10:12;;;;;;;;;;;;;;;21.22;30.54;98155.00;5038283;28;982;-78
2023/10/31 00:12:38;;;;;;;;;;;;;;;21.35;30.25;98163.63;5038599;28;826;-78
2023/10/31 00:15:04;;;;;;;;;;;;;;;21.19;30.47;98156.69;5037016;28;1977;-78
2023/10/31 00:17:30;;;;;;;;;;;;;;;21.29;30.42;98152.78;5054107;28;967;-78
2023/10/31 00:19:56;;;;;;;;;;;;;;;21.05;30.73;98159.81;5053468;28;952;-78
2023/10/31 00:22:22;;;;;;;;;;;;;;;21.26;30.41;98156.50;5036996;28;798;-78
2023/10/31 00:24:47;;;;;;;;;;;;;;;21.31;30.31;98150.38;5053837;28;925;-78
2023/10/31 00:27:14;;;;;;;;;;;;;;;21.14;30.65;98151.53;5037211;28;1158;-78
2023/10/31 00:29:40;;;;;;;;;;;;;;;21.12;30.83;98141.88;5036973;28;1221;-78
2023/10/31 00:32:05;;;;;;;;;;;;;;;21.32;30.25;98140.63;5053038;28;1170;-78
2023/10/31 00:34:33;;;;;;;;;;;;;;;21.31;30.08;98139.03;5053583;28;1174;-78
2023/10/31 00:36:58;;;;;;;;;;;;;;;21.12;30.58;98142.69;5053886;28;1913;-78
2023/10/31 00:39:24;;;;;;;;;;;;;;;21.23;30.30;98142.44;5036964;28;1336;-78
2023/10/31 00:41:49;;;;;;;;;;;;;;;21.16;30.47;98137.75;5053218;28;979;-78
2023/10/31 00:44:15;;;;;;;;;;;;;;;21.21;30.55;98127.94;5053038;28;1064;-79
2023/10/31 00:46:40;;;;;;;;;;;;;;;21.42;30.21;98138.78;5042669;28;899;-78
2023/10/31 00:49:06;;;;;;;;;;;;;;;21.07;30.62;98131.88;5021593;28;1079;-78
2023/10/31 00:51:31;;;;;;;;;;;;;;;21.11;30.71;98124.13;5038043;28;708;-78
2023/10/31 00:53:57;;;;;;;;;;;;;;;20.90;30.65;98096.31;4997389;28;1131;-79
2023/10/31 00:56:22;;;;;;;;;;;;;;;21.24;30.42;98124.22;5013469;28;1977;-78
2023/10/31 00:58:48;;;;;;;;;;;;;;;21.23;30.16;98114.94;5013506;28;993;-78
2023/10/31 01:01:14;;;;;;;;;;;;;;;21.08;30.50;98120.13;5013872;28;736;-78
2023/10/31 01:03:41;;;;;;;;;;;;;;;21.26;30.49;98114.06;4997274;28;1126;-78
2023/10/31 01:06:07;;;;;;;;;;;;;;;21.07;30.71;98117.72;4997498;28;743;-78
2023/10/31 01:08:32;;;;;;;;;;;;;;;21.26;30.40;98116.88;4974333;28;1293;-79
2023/10/31 01:10:58;;;;;;;;;;;;;;;21.17;30.44;98113.88;4958299;28;1203;-78
2023/10/31 01:13:23;;;;;;;;;;;;;;;21.32;30.21;98117.19;4958389;28;813;-79
2023/10/31 01:15:49;;;;;;;;;;;;;;;21.27;30.60;98110.00;4974571;28;1907;-79
2023/10/31 01:18:15;;;;;;;;;;;;;;;21.06;30.55;98110.50;4958256;28;1323;-78
2023/10/31 01:20:40;;;;;;;;;;;;;;;21.09;30.55;98109.63;4958118;28;1066;-79
2023/10/31 01:23:05;;;;;;;;;;;;;;;21.11;30.68;98098.66;4974342;28;863;-78
2023/10/31 01:25:31;;;;;;;;;;;;;;;21.25;30.43;98101.16;4986869;28;1116;-78
2023/10/31 01:27:56;;;;;;;;;;;;;;;21.41;29.82;98102.44;5013084;28;775;-78
2023/10/31 01:30:23;;;;;;;;;;;;;;;21.17;30.24;98101.75;4997018;28;907;-79
2023/10/31 01:32:48;;;;;;;;;;;;;;;21.39;30.25;98104.91;5013250;28;804;-78
2023/10/31 01:35:14;;;;;;;;;;;;;;;21.28;30.14;98096.63;4996947;28;1902;-78
2023/10/31 01:37:40;;;;;;;;;;;;;;;21.31;30.19;98093.75;4996871;28;1119;-78
2023/10/31 01:40:07;;;;;;;;;;;;;;;21.26;30.23;98107.59;5013362;28;806;-78
2023/10/31 01:42:33;;;;;;;;;;;;;;;21.35;30.16;98104.19;4997182;28;775;-79
2023/10/31 01:44:58;;;;;;;;;;;;;;;21.01;30.95;98099.69;5003467;28;1111;-78
2023/10/31 01:47:24;;;;;;;;;;;;;;;21.18;30.59;98089.97;5041211;28;909;-79
2023/10/31 01:49:50;;;;;;;;;;;;;;;21.17;30.40;98082.75;5059048;28;794;-78
2023/10/31 01:52:15;;;;;;;;;;;;;;;21.25;30.37;98089.03;5024754;28;1249;-78
2023/10/31 01:54:41;;;;;;;;;;;;;;;21.03;31.05;98077.41;5041562;28;692;-79
2023/10/31 01:57:07;;;;;;;;;;;;;;;21.12;30.73;98080.44;5019736;28;1914;-78
2023/10/31 01:59:32;;;;;;;;;;;;;;;21.45;30.28;98083.31;5036305;28;1113;-78
2023/10/31 02:01:58;;;;;;;;;;;;;;;21.33;30.25;98073.50;5020117;28;1139;-78
2023/10/31 02:04:24;;;;;;;;;;;;;;;21.19;30.77;98074.63;5019900;28;790;-78
2023/10/31 02:06:49;;;;;;;;;;;;;;;21.45;30.29;98069.97;5019608;28;885;-78
2023/10/31 02:09:15;;;;;;;;;;;;;;;21.28;30.72;98074.78;5020073;28;791;-79
2023/10/31 02:11:41;;;;;;;;;;;;;;;21.06;30.83;98071.69;5003652;28;1150;-78
2023/10/31 02:14:06;;;;;;;;;;;;;;;21.14;30.60;98072.31;5036082;28;1083;-78
2023/10/31 02:16:32;;;;;;;;;;;;;;;21.12;31.01;98073.97;5019627;28;1917;-79
2023/10/31 02:18:57;;;;;;;;;;;;;;;21.18;30.86;98073.00;5019365;28;705;-79
2023/10/31 02:21:23;;;;;;;;;;;;;;;21.25;30.65;98075.69;5035973;28;1262;-79
2023/10/31 02:23:58;;;;;;;;;;;;;;;21.10;30.71;98077.25;5019471;28;1077;-78
2023/10/31 02:26:28;;;;;;;;;;;;;;;21.06;30.66;98070.88;5019443;28;751;-78
2023/10/31 02:28:53;;;;;;;;;;;;;;;21.23;30.27;98069.66;4999644;28;1257;-78
2023/10/31 02:31:19;;;;;;;;;;;;;;;21.40;30.16;98072.50;4999643;28;1221;-78
2023/10/31 02:33:44;;;;;;;;;;;;;;;21.35;29.72;98076.69;4983459;28;1205;-78
2023/10/31 02:36:10;;;;;;;;;;;;;;;21.16;30.12;98075.50;4999794;28;1906;-78
2023/10/31 02:38:35;;;;;;;;;;;;;;;21.20;30.31;98070.56;4999445;28;1394;-78
2023/10/31 02:41:01;;;;;;;;;;;;;;;21.10;30.25;98059.50;4983396;28;1132;-78
2023/10/31 02:43:26;;;;;;;;;;;;;;;21.25;30.20;98055.88;4976717;28;1100;-78
2023/10/31 02:45:52;;;;;;;;;;;;;;;21.27;29.88;98053.38;4960428;28;1056;-78
2023/10/31 02:48:17;;;;;;;;;;;;;;;20.94;30.54;98046.13;4960566;28;1135;-78
2023/10/31 02:50:44;;;;;;;;;;;;;;;21.11;30.12;98049.75;4960463;28;824;-78
2023/10/31 02:53:11;;;;;;;;;;;;;;;20.90;30.44;98048.22;4960905;28;1017;-78
2023/10/31 02:55:37;;;;;;;;;;;;;;;21.31;29.86;98045.66;4960357;28;1898;-78
2023/10/31 02:58:02;;;;;;;;;;;;;;;21.31;29.98;98042.81;4957266;28;868;-78
2023/10/31 03:00:28;;;;;;;;;;;;;;;21.44;29.72;98044.91;4955775;28;1052;-78
2023/10/31 03:02:53;;;;;;;;;;;;;;;21.15;30.11;98042.78;4995726;28;925;-78
2023/10/31 03:05:19;;;;;;;;;;;;;;;21.07;30.06;98039.31;4979750;28;823;-78
2023/10/31 03:07:45;;;;;;;;;;;;;;;21.03;30.36;98037.81;4979623;28;872;-78
2023/10/31 03:10:10;;;;;;;;;;;;;;;21.18;30.37;98038.25;4979804;28;1274;-78
2023/10/31 03:12:36;;;;;;;;;;;;;;;21.31;30.07;98042.81;4995858;28;959;-78
2023/10/31 03:15:02;;;;;;;;;;;;;;;21.31;29.98;98031.50;4979166;28;1895;-78
2023/10/31 03:17:28;;;;;;;;;;;;;;;21.13;30.31;98042.41;4995817;28;989;-78
2023/10/31 03:19:53;;;;;;;;;;;;;;;21.28;30.02;98046.50;4997577;28;878;-78
2023/10/31 03:22:19;;;;;;;;;;;;;;;21.31;29.90;98034.31;5015608;28;805;-78
2023/10/31 03:24:44;;;;;;;;;;;;;;;21.32;30.28;98032.28;4999014;28;1281;-79
2023/10/31 03:27:10;;;;;;;;;;;;;;;21.06;30.48;98032.06;4998853;28;1145;-78
2023/10/31 03:29:35;;;;;;;;;;;;;;;21.22;30.37;98033.31;4975836;28;964;-78
2023/10/31 03:32:01;;;;;;;;;;;;;;;21.35;29.82;98037.06;4959874;28;907;-78
2023/10/31 03:34:26;;;;;;;;;;;;;;;21.46;29.54;98036.81;4957918;28;953;-79
2023/10/31 03:36:52;;;;;;;;;;;;;;;21.30;30.02;98040.44;4995472;28;1918;-78
2023/10/31 03:39:18;;;;;;;;;;;;;;;21.10;30.25;98037.66;4978910;28;1263;-78
2023/10/31 03:41:44;;;;;;;;;;;;;;;21.01;30.26;98031.81;4995575;28;838;-78
2023/10/31 03:44:09;;;;;;;;;;;;;;;21.01;30.39;98028.97;4978773;28;1230;-78
2023/10/31 03:46:35;;;;;;;;;;;;;;;21.09;30.15;98024.75;4963343;28;1213;-78
2023/10/31 03:49:00;;;;;;;;;;;;;;;21.13;30.35;98019.78;5009738;28;823;-78
2023/10/31 03:51:26;;;;;;;;;;;;;;;21.13;30.06;98025.44;5014750;28;872;-78
2023/10/31 03:53:51;;;;;;;;;;;;;;;20.95;30.19;98025.06;4998424;28;1167;-79
2023/10/31 03:56:17;;;;;;;;;;;;;;;21.15;30.01;98022.97;5014923;28;1922;-78
2023/10/31 03:58:42;;;;;;;;;;;;;;;20.91;30.30;98013.06;5014708;28;766;-78
2023/10/31 04:01:08;;;;;;;;;;;;;;;21.24;29.62;98014.66;4992850;28;1017;-78
2023/10/31 04:03:33;;;;;;;;;;;;;;;21.29;29.53;98031.09;5014854;28;1156;-78
2023/10/31 04:05:59;;;;;;;;;;;;;;;21.08;29.93;98032.41;5014296;28;782;-78
2023/10/31 04:08:25;;;;;;;;;;;;;;;20.95;30.15;98027.91;4998097;28;851;-78
2023/10/31 04:10:50;;;;;;;;;;;;;;;20.92;30.42;98037.25;4998038;28;744;-78
2023/10/31 04:13:16;;;;;;;;;;;;;;;21.27;29.37;98030.75;5014530;28;910;-78
2023/10/31 04:15:41;;;;;;;;;;;;;;;21.23;29.49;98035.69;5014124;28;1993;-78
2023/10/31 04:18:06;;;;;;;;;;;;;;;21.06;29.93;98026.41;5014558;28;784;-78
2023/10/31 04:20:32;;;;;;;;;;;;;;;21.16;29.51;98030.22;5014248;28;862;-78
2023/10/31 04:22:57;;;;;;;;;;;;;;;21.28;29.37;98035.16;5014371;28;858;-78
2023/10/31 04:25:23;;;;;;;;;;;;;;;20.93;30.40;98030.34;5014353;28;784;-78
2023/10/31 04:27:49;;;;;;;;;;;;;;;20.91;30.10;98030.03;4965752;28;1258;-78
2023/10/31 04:30:14;;;;;;;;;;;;;;;21.21;29.56;98029.69;5014177;28;888;-78
2023/10/31 04:32:40;;;;;;;;;;;;;;;21.12;29.79;98038.00;4997888;28;1329;-78
2023/10/31 04:35:05;;;;;;;;;;;;;;;21.46;29.48;98036.81;4997540;28;1903;-78
2023/10/31 04:37:31;;;;;;;;;;;;;;;21.20;29.96;98042.25;5000547;28;943;-78
2023/10/31 04:39:56;;;;;;;;;;;;;;;21.22;29.63;98050.28;5021941;28;1297;-78
2023/10/31 04:42:22;;;;;;;;;;;;;;;21.22;29.67;98045.44;5056065;28;825;-78
2023/10/31 04:44:48;;;;;;;;;;;;;;;21.53;29.42;98036.59;5021473;28;1189;-78
2023/10/31 04:47:14;;;;;;;;;;;;;;;21.17;29.96;98043.13;5038271;28;1173;-78
2023/10/31 04:49:39;;;;;;;;;;;;;;;21.30;29.64;98041.22;5022225;28;993;-78
2023/10/31 04:52:05;;;;;;;;;;;;;;;21.42;29.63;98041.75;5056415;28;1047;-78
2023/10/31 04:54:30;;;;;;;;;;;;;;;21.42;29.58;98041.75;5055792;28;1441;-78
2023/10/31 04:56:56;;;;;;;;;;;;;;;21.31;29.53;98042.81;5056443;28;1906;-78
2023/10/31 04:59:21;;;;;;;;;;;;;;;21.45;29.64;98036.00;5021877;28;1128;-78
2023/10/31 05:01:50;;;;;;;;;;;;;;;21.19;29.92;98035.00;5056581;28;870;-77
2023/10/31 05:04:16;;;;;;;;;;;;;;;21.17;29.97;98036.69;5004645;28;1049;-78
2023/10/31 05:06:42;;;;;;;;;;;;;;;21.08;29.97;98042.94;5022037;28;1205;-78
2023/10/31 05:09:07;;;;;;;;;;;;;;;20.95;30.35;98042.06;5021786;28;1589;-77
2023/10/31 05:11:33;;;;;;;;;;;;;;;21.16;30.06;98047.19;5037998;28;1498;-78
2023/10/31 05:13:59;;;;;;;;;;;;;;;20.98;30.38;98055.28;5021629;28;1353;-78
2023/10/31 05:16:24;;;;;;;;;;;;;;;21.09;30.08;98050.22;5038428;28;1971;-78
2023/10/31 05:18:50;;;;;;;;;;;;;;;21.20;30.15;98042.25;5041328;28;934;-78
2023/10/31 05:21:18;;;;;;;;;;;;;;;21.36;29.85;98049.97;5059888;28;885;-78
2023/10/31 05:23:44;;;;;;;;;;;;;;;21.13;30.20;98053.72;5025785;28;945;-78
2023/10/31 05:26:09;;;;;;;;;;;;;;;21.18;29.99;98061.69;5025675;28;955;-77
2023/10/31 05:28:35;;;;;;;;;;;;;;;21.00;30.44;98061.34;5042063;28;1084;-77
2023/10/31 05:31:00;;;;;;;;;;;;;;;21.36;29.91;98060.50;5060376;28;919;-78
2023/10/31 05:33:26;;;;;;;;;;;;;;;21.28;30.09;98054.97;5041888;28;942;-78
2023/10/31 05:35:51;;;;;;;;;;;;;;;21.39;29.61;98065.28;5041994;28;1980;-78
2023/10/31 05:38:17;;;;;;;;;;;;;;;21.24;30.27;98059.94;5025132;28;1476;-78
2023/10/31 05:40:42;;;;;;;;;;;;;;;21.29;29.95;98070.72;5059490;28;1486;-78
2023/10/31 05:43:08;;;;;;;;;;;;;;;21.36;29.64;98071.84;5040457;28;1580;-77
2023/10/31 05:45:33;;;;;;;;;;;;;;;21.00;30.24;98073.44;5057433;28;1591;-78
2023/10/31 05:47:59;;;;;;;;;;;;;;;21.33;29.80;98068.63;5040904;28;1099;-78
2023/10/31 05:50:25;;;;;;;;;;;;;;;21.11;30.12;98069.56;5024078;28;1205;-78
2023/10/31 05:52:50;;;;;;;;;;;;;;;21.12;30.11;98062.66;5056876;28;1546;-78
2023/10/31 05:55:16;;;;;;;;;;;;;;;21.29;29.90;98065.06;5057253;28;1902;-78
2023/10/31 05:57:41;;;;;;;;;;;;;;;21.40;29.56;98066.84;5024015;28;923;-78
2023/10/31 06:00:08;;;;;;;;;;;;;;;20.97;30.62;98073.50;5040306;28;1008;-78
2023/10/31 06:02:37;;;;;;;;;;;;;;;21.17;30.36;98071.41;5040988;28;1133;-78
2023/10/31 06:05:03;;;;;;;;;;;;;;;21.23;30.30;98075.31;5040109;28;955;-78
2023/10/31 06:07:28;;;;;;;;;;;;;;;21.04;30.31;98074.16;5037136;28;1067;-78
2023/10/31 06:09:54;;;;;;;;;;;;;;;21.25;30.24;98070.03;5003721;28;1087;-78
2023/10/31 06:12:19;;;;;;;;;;;;;;;21.14;30.46;98072.31;5020641;28;1069;-78
2023/10/31 06:14:45;;;;;;;;;;;;;;;21.40;29.76;98072.50;5003974;28;1111;-78
2023/10/31 06:17:10;;;;;;;;;;;;;;;21.22;30.11;98070.91;4997255;28;2005;-78
2023/10/31 06:19:36;;;;;;;;;;;;;;;21.24;30.42;98076.94;4981482;28;1099;-78
2023/10/31 06:22:01;;;;;;;;;;;;;;;21.22;30.37;98067.28;4996949;28;1354;-78
2023/10/31 06:24:27;;;;;;;;;;;;;;;21.14;30.54;98066.66;4981213;28;1243;-78
2023/10/31 06:26:52;;;;;;;;;;;;;;;21.23;30.28;98069.66;4981248;28;976;-78
2023/10/31 06:29:18;;;;;;;;;;;;;;;21.20;30.51;98079.03;4980064;28;962;-79
2023/10/31 06:31:44;;;;;;;;;;;;;;;20.98;30.65;98078.72;4980814;28;958;-78
2023/10/31 06:34:09;;;;;;;;;;;;;;;21.08;30.57;98069.19;4961137;28;2198;-78
2023/10/31 06:36:35;;;;;;;;;;;;;;;21.33;30.09;98065.78;4961514;28;1987;-78
2023/10/31 06:39:00;;;;;;;;;;;;;;;21.42;30.00;98064.41;4961371;28;939;-78
2023/10/31 06:41:27;;;;;;;;;;;;;;;21.20;30.32;98064.88;4962248;28;1123;-78
2023/10/31 06:43:52;;;;;;;;;;;;;;;20.91;30.88;98058.31;4961421;28;964;-78
2023/10/31 06:46:18;;;;;;;;;;;;;;;21.23;30.49;98064.00;4995474;28;1033;-78
2023/10/31 06:48:43;;;;;;;;;;;;;;;21.47;29.86;98055.38;4996667;28;1052;-78
2023/10/31 06:51:09;;;;;;;;;;;;;;;21.31;30.40;98054.13;4980459;28;999;-78
2023/10/31 06:53:35;;;;;;;;;;;;;;;21.32;30.37;98060.59;5014037;28;1018;-78
2023/10/31 06:56:00;;;;;;;;;;;;;;;21.32;30.26;98055.72;5039541;28;1977;-78
2023/10/31 06:58:26;;;;;;;;;;;;;;;21.29;30.41;98050.91;5039374;28;1130;-78
2023/10/31 07:00:51;;;;;;;;;;;;;;;21.41;30.07;98052.28;5039268;28;1181;-78
2023/10/31 07:03:17;;;;;;;;;;;;;;;21.23;30.50;98047.00;5039081;28;949;-78
2023/10/31 07:05:42;;;;;;;;;;;;;;;21.40;30.29;98049.88;5057516;28;1003;-78
2023/10/31 07:08:08;;;;;;;;;;;;;;;21.31;30.32;98051.31;5057614;28;967;-78
2023/10/31 07:10:33;;;;;;;;;;;;;;;21.41;30.29;98048.66;5039593;28;950;-78
2023/10/31 07:12:59;;;;;;;;;;;;;;;21.30;30.48;98057.41;5058177;28;985;-78
2023/10/31 07:15:25;;;;;;;;;;;;;;;21.10;30.88;98048.97;5056835;28;1983;-78
2023/10/31 07:17:51;;;;;;;;;;;;;;;21.10;30.81;98048.16;5056769;28;916;-78
2023/10/31 07:20:16;;;;;;;;;;;;;;;21.25;30.34;98049.44;5056733;28;1381;-78
2023/10/31 07:22:42;;;;;;;;;;;;;;;21.22;30.61;98048.25;5056537;28;914;-78
2023/10/31 07:25:08;;;;;;;;;;;;;;;21.33;30.16;98062.97;5056827;28;898;-78
2023/10/31 07:27:33;;;;;;;;;;;;;;;21.21;30.58;98060.81;5056610;28;1205;-78
2023/10/31 07:29:59;;;;;;;;;;;;;;;21.48;29.98;98063.41;5056471;28;1087;-78
2023/10/31 07:32:24;;;;;;;;;;;;;;;21.28;30.40;98060.63;5056801;28;945;-78
2023/10/31 07:34:50;;;;;;;;;;;;;;;21.00;31.00;98064.16;5056188;28;938;-78
2023/10/31 07:37:15;;;;;;;;;;;;;;;21.07;31.02;98066.81;5039960;28;1992;-78
2023/10/31 07:39:42;;;;;;;;;;;;;;;21.05;30.98;98066.47;5056805;28;924;-78
2023/10/31 07:42:07;;;;;;;;;;;;;;;21.14;30.81;98055.34;5017591;28;1134;-78
2023/10/31 07:44:33;;;;;;;;;;;;;;;21.59;29.92;98063.13;5034673;28;1268;-78
2023/10/31 07:46:58;;;;;;;;;;;;;;;21.42;30.30;98062.34;5002603;28;1427;-78
2023/10/31 07:49:24;;;;;;;;;;;;;;;21.24;30.65;98062.78;5004982;28;1200;-78
2023/10/31 07:51:49;;;;;;;;;;;;;;;21.35;30.49;98059.72;4999357;28;915;-78
2023/10/31 07:54:16;;;;;;;;;;;;;;;21.36;30.45;98060.50;4983009;28;1150;-77
2023/10/31 07:56:41;;;;;;;;;;;;;;;21.26;30.27;98063.13;4982459;28;1969;-78
2023/10/31 07:59:10;;;;;;;;;;;;;;;21.16;30.52;98058.53;4998620;28;1118;-78
2023/10/31 08:01:36;;;;;;;;;;;;;;;21.08;30.63;98052.22;4998810;28;1187;-78
2023/10/31 08:04:07;;;;;;;;;;;;;;;21.31;30.11;98048.47;5093995;27;1924;-77
2023/10/31 08:06:33;;;;;;;;;;;;;;;21.32;30.31;98050.06;5109605;28;1223;-77
2023/10/31 08:08:59;;;;;;;;;;;;;;;21.41;30.23;98028.84;5092943;28;1057;-77
2023/10/31 08:11:24;;;;;;;;;;;;;;;21.42;30.23;98048.22;5132290;28;910;-78
2023/10/31 08:13:50;;;;;;;;;;;;;;;21.44;30.33;98034.41;5098339;28;1233;-77
2023/10/31 08:16:22;;;;;;;;;;;;;;;21.41;30.14;98040.97;5132038;28;936;-77
2023/10/31 08:18:48;;;;;;;;;;;;;;;21.52;29.90;98037.84;5132289;28;935;-77
2023/10/31 08:21:13;;;;;;;;;;;;;;;21.14;30.89;98037.53;5115287;28;1068;-77
2023/10/31 08:23:39;;;;;;;;;;;;;;;21.30;30.58;98035.56;5097785;28;1909;-78
2023/10/31 08:26:04;;;;;;;;;;;;;;;21.26;30.56;98039.69;5063996;28;1078;-77
2023/10/31 08:28:30;;;;;;;;;;;;;;;21.26;30.51;98028.38;5097813;28;1011;-78
2023/10/31 08:30:56;;;;;;;;;;;;;;;21.49;30.30;98030.22;5080997;27;1122;-78
2023/10/31 08:33:22;;;;;;;;;;;;;;;21.66;29.59;98019.69;5097859;28;1301;-77
2023/10/31 08:35:47;;;;;;;;;;;;;;;21.31;30.21;98022.22;5091640;28;1353;-77
2023/10/31 08:38:13;;;;;;;;;;;;;;;21.46;30.19;98019.81;5093901;28;1749;-77
2023/10/31 08:40:38;;;;;;;;;;;;;;;21.55;30.15;98017.13;5093792;28;1697;-77
2023/10/31 08:43:06;;;;;;;;;;;;;;;21.38;30.37;98018.41;5078202;28;1975;-77
2023/10/31 08:45:32;;;;;;;;;;;;;;;21.35;30.23;98007.94;5040238;28;969;-77
2023/10/31 08:47:58;;;;;;;;;;;;;;;21.19;30.72;98012.38;5091177;28;922;-77
2023/10/31 08:50:23;;;;;;;;;;;;;;;21.47;30.47;98004.41;5073680;28;929;-78
2023/10/31 08:52:49;;;;;;;;;;;;;;;21.59;30.03;98007.31;5090593;28;1560;-77
2023/10/31 08:55:14;;;;;;;;;;;;;;;21.35;30.42;97993.78;5073287;28;1568;-77
2023/10/31 08:57:40;;;;;;;;;;;;;;;21.33;30.68;98000.69;5090350;28;1580;-77
2023/10/31 09:00:05;;;;;;;;;;;;;;;21.30;30.73;98000.81;5090013;28;1504;-77
2023/10/31 09:02:31;;;;;;;;;;;;;;;21.43;30.33;97998.03;5050865;28;1898;-78
2023/10/31 09:04:57;;;;;;;;;;;;;;;21.33;30.37;97995.03;5090148;28;1542;-77
2023/10/31 09:07:22;;;;;;;;;;;;;;;21.35;30.68;97988.97;5084261;28;1484;-77
2023/10/31 09:09:48;;;;;;;;;;;;;;;21.32;30.54;97987.78;5102289;28;1484;-77
2023/10/31 09:12:13;;;;;;;;;;;;;;;21.29;30.70;97982.97;5091141;28;1492;-77
2023/10/31 09:14:39;;;;;;;;;;;;;;;21.39;30.73;97974.69;5116532;28;1198;-78
2023/10/31 09:17:04;;;;;;;;;;;;;;;21.35;30.94;97979.66;5078930;28;1358;-77
2023/10/31 09:19:30;;;;;;;;;;;;;;;21.07;31.11;97976.28;5095196;28;1095;-78
2023/10/31 09:21:55;;;;;;;;;;;;;;;21.22;30.80;97969.03;5111586;28;1905;-78
2023/10/31 09:24:21;;;;;;;;;;;;;;;21.25;31.04;97962.50;5094575;28;921;-78
2023/10/31 09:26:46;;;;;;;;;;;;;;;21.54;30.33;97958.91;5094710;28;1298;-77
2023/10/31 09:29:12;;;;;;;;;;;;;;;21.60;30.37;97968.47;5094457;28;1078;-78
2023/10/31 09:31:37;;;;;;;;;;;;;;;21.66;30.34;97955.38;5111196;28;984;-78
2023/10/31 09:34:03;;;;;;;;;;;;;;;21.58;30.56;97959.63;5078595;28;877;-77
2023/10/31 09:36:31;;;;;;;;;;;;;;;21.30;31.04;97947.84;5094582;28;1116;-77
2023/10/31 09:38:57;;;;;;;;;;;;;;;21.69;30.18;97945.97;5110876;28;1605;-78
2023/10/31 09:41:22;;;;;;;;;;;;;;;21.50;30.39;97952.56;5058259;28;1477;-77
2023/10/31 09:43:48;;;;;;;;;;;;;;;21.53;30.53;97940.34;5077009;28;1967;-78
2023/10/31 09:46:13;;;;;;;;;;;;;;;21.39;30.78;97937.91;5077303;28;1448;-78
2023/10/31 09:48:39;;;;;;;;;;;;;;;21.43;30.70;97935.78;5077323;28;902;-78
2023/10/31 09:51:04;;;;;;;;;;;;;;;21.39;30.84;97935.06;5077355;28;898;-77
2023/10/31 09:56:22;;;;;;;;;;;;;;;22.00;31.18;97920.00;4976746;28;1442;-76
2023/10/31 09:58:48;;;;;;;;;;;;;;;22.21;31.11;97927.09;4945700;28;1209;-78
2023/10/31 10:01:14;;;;;;;;;;;;;;;22.10;31.04;97916.88;4962067;28;1572;-78
2023/10/31 10:03:40;;;;;;;;;;;;;;;21.93;30.70;97911.72;4946286;28;1907;-78
2023/10/31 10:06:05;;;;;;;;;;;;;;;21.79;30.58;97908.06;4946517;28;1118;-78
2023/10/31 10:08:31;;;;;;;;;;;;;;;21.69;30.36;97911.97;4961524;28;1669;-78
2023/10/31 10:10:56;;;;;;;;;;;;;;;21.51;30.68;97909.66;4961594;28;1666;-79
2023/10/31 10:13:22;;;;;;;;;;;;;;;21.28;30.89;97899.31;4961837;28;1383;-78
2023/10/31 10:15:55;;;;;;;;;;;;;;;21.41;30.71;97892.97;4927987;28;1945;-78
2023/10/31 10:18:30;;;;;;;;;;;;;;;21.24;30.33;97889.34;4939758;28;1411;-78
2023/10/31 10:20:56;;;;;;;;;;;;;;;21.21;30.46;97890.25;4941335;28;1421;-78
2023/10/31 10:23:22;;;;;;;;;;;;;;;21.53;29.43;97883.72;4953222;28;1969;-78
2023/10/31 10:25:50;;;;;;;;;;;;;;;21.35;29.76;97883.41;4960785;28;1654;-79
2023/10/31 10:28:16;;;;;;;;;;;;;;;21.01;30.04;97876.22;4961988;28;1248;-79
2023/10/31 10:30:41;;;;;;;;;;;;;;;21.26;29.44;97876.34;4978893;28;1588;-78
2023/10/31 10:33:07;;;;;;;;;;;;;;;21.24;29.68;97875.19;4979548;28;923;-79
2023/10/31 10:35:34;;;;;;;;;;;;;;;21.47;28.97;97874.19;4922321;29;1674;-79
2023/10/31 10:37:59;;;;;;;;;;;;;;;21.10;29.55;97875.59;4906545;29;934;-79
2023/10/31 10:40:25;;;;;;;;;;;;;;;21.51;28.83;97864.38;4922194;29;1008;-78
2023/10/31 10:42:56;;;;;;;;;;;;;;;21.43;28.92;97862.19;4922382;29;1990;-78
2023/10/31 10:45:22;;;;;;;;;;;;;;;21.43;28.73;97850.84;4922725;29;1614;-79
2023/10/31 10:47:49;;;;;;;;;;;;;;;21.31;28.58;97847.53;4922083;29;1519;-79
2023/10/31 10:50:15;;;;;;;;;;;;;;;21.29;28.57;97847.13;4921877;29;1511;-78
2023/10/31 10:52:46;;;;;;;;;;;;;;;21.44;28.49;97841.13;4890857;29;1148;-78
2023/10/31 10:55:13;;;;;;;;;;;;;;;21.53;28.14;97838.44;4915168;29;1219;-78
2023/10/31 10:57:54;;;;;;;;;;;;;;;21.24;28.53;97836.41;4940912;29;884;-78
2023/10/31 11:00:24;;;;;;;;;;;;;;;21.23;28.53;97837.63;4940780;29;1884;-77
2023/10/31 11:02:52;;;;;;;;;;;;;;;20.81;29.42;97829.03;4924962;29;1898;-77
2023/10/31 11:05:17;;;;;;;;;;;;;;;21.22;28.71;97826.75;4941350;29;1234;-77
2023/10/31 11:07:43;;;;;;;;;;;;;;;21.36;28.46;97822.75;4976813;28;1235;-78
2023/10/31 11:10:08;;;;;;;;;;;;;;;21.37;28.32;97818.69;4976851;28;1009;-78
2023/10/31 11:12:34;;;;;;;;;;;;;;;21.40;28.33;97829.09;4961261;28;1124;-78
2023/10/31 11:15:00;;;;;;;;;;;;;;;21.29;28.14;97818.84;4940595;29;1062;-78
2023/10/31 11:17:34;;;;;;;;;;;;;;;21.24;28.51;97819.41;4924959;29;1043;-78
2023/10/31 11:19:59;;;;;;;;;;;;;;;21.10;28.36;97802.84;4924488;29;954;-78
2023/10/31 11:22:25;;;;;;;;;;;;;;;21.39;27.94;97804.88;4940563;29;1970;-78
2023/10/31 11:24:50;;;;;;;;;;;;;;;20.94;28.52;97809.31;4924171;29;930;-78
2023/10/31 11:27:16;;;;;;;;;;;;;;;20.97;28.68;97796.31;4924440;29;1348;-78
2023/10/31 11:29:42;;;;;;;;;;;;;;;20.93;28.62;97787.13;4924648;29;940;-78
2023/10/31 11:32:10;;;;;;;;;;;;;;;20.95;28.85;97781.84;4924304;29;973;-78
2023/10/31 11:34:41;;;;;;;;;;;;;;;21.18;28.05;97778.75;4924664;29;1028;-78
2023/10/31 11:37:28;;;;;;;;;;;;;;;21.30;28.13;97775.19;4940744;29;976;-78
2023/10/31 11:40:12;;;;;;;;;;;;;;;20.86;28.57;97767.53;4956477;29;1051;-78
2023/10/31 11:42:38;;;;;;;;;;;;;;;21.06;28.52;97765.34;4956033;29;1908;-78
2023/10/31 11:45:04;;;;;;;;;;;;;;;21.19;27.94;97760.53;4926580;28;1546;-77
2023/10/31 11:47:45;;;;;;;;;;;;;;;21.19;28.01;97763.38;4938652;28;1718;-78
2023/10/31 11:50:11;;;;;;;;;;;;;;;20.88;28.50;97759.38;4974182;28;1510;-78
2023/10/31 11:52:37;;;;;;;;;;;;;;;21.23;28.00;97761.22;4976630;28;1025;-78
2023/10/31 11:55:03;;;;;;;;;;;;;;;20.92;28.49;97760.88;4939716;29;1419;-77
2023/10/31 11:57:28;;;;;;;;;;;;;;;21.01;28.35;97751.75;4924601;29;1183;-78
2023/10/31 11:59:54;;;;;;;;;;;;;;;20.96;28.42;97755.13;4908636;29;1274;-78
2023/10/31 12:02:20;;;;;;;;;;;;;;;20.78;28.61;97750.78;4908636;29;1911;-78
2023/10/31 12:04:46;;;;;;;;;;;;;;;21.08;28.01;97757.19;4924514;29;1116;-78
2023/10/31 12:07:11;;;;;;;;;;;;;;;21.01;28.26;97746.88;4924030;29;1106;-78
2023/10/31 12:09:48;;;;;;;;;;;;;;;21.35;27.66;97750.41;4924121;29;1119;-78
2023/10/31 12:12:14;;;;;;;;;;;;;;;21.17;27.87;97748.88;4924164;29;1771;-78
2023/10/31 12:14:40;;;;;;;;;;;;;;;21.26;27.81;97757.50;4940008;29;1141;-78
2023/10/31 12:17:06;;;;;;;;;;;;;;;21.11;27.89;97747.84;4940256;29;1010;-78
2023/10/31 12:19:32;;;;;;;;;;;;;;;21.33;27.48;97740.31;4956155;29;1249;-79
2023/10/31 12:21:58;;;;;;;;;;;;;;;21.11;27.74;97747.84;4939707;29;1906;-78
2023/10/31 12:24:23;;;;;;;;;;;;;;;21.07;27.89;97744.31;4956051;29;947;-78
2023/10/31 12:26:51;;;;;;;;;;;;;;;21.04;27.98;97739.56;4953614;28;1206;-78
2023/10/31 12:29:20;;;;;;;;;;;;;;;21.03;27.87;97740.78;4976513;28;925;-78
2023/10/31 12:31:49;;;;;;;;;;;;;;;20.22;27.71;97601.25;4976074;28;921;-78
2023/10/31 12:34:15;;;;;;;;;;;;;;;21.05;28.09;97741.13;4960076;28;970;-78
2023/10/31 12:36:41;;;;;;;;;;;;;;;21.27;27.40;97749.81;4976167;28;1020;-78
2023/10/31 12:39:12;;;;;;;;;;;;;;;21.31;27.60;97737.16;4936489;29;984;-78
2023/10/31 12:41:38;;;;;;;;;;;;;;;21.05;27.84;97741.13;4921011;29;900;-78
2023/10/31 12:44:09;;;;;;;;;;;;;;;21.09;27.78;97733.34;4889252;29;1906;-79
2023/10/31 12:46:35;;;;;;;;;;;;;;;20.88;27.98;97731.09;4921605;29;969;-78
2023/10/31 12:49:00;;;;;;;;;;;;;;;21.10;27.83;97734.94;4920966;29;965;-78
2023/10/31 12:51:26;;;;;;;;;;;;;;;21.25;27.38;97727.63;4924263;29;964;-78
2023/10/31 12:53:51;;;;;;;;;;;;;;;21.08;27.75;97723.25;4940169;29;978;-78
2023/10/31 12:56:39;;;;;;;;;;;;;;;20.93;28.02;97722.06;4908303;29;1052;-78